Search for airport 
image banner adimage banner adimage banner ad
image banner ad

CCG3 - Weyman Airpark

Located in Keswick, Canada

ICAO - CCG3, IATA -

Data provided by Airmate  

General information

Coordinates: N46°2'15" W66°51'32"
Elevation is 140 feet MSL.
Magnetic variation is -17.4167° East
View others Airports in New Brunswick

Operational data

Special qualification required
Current time UTC:
Current local time:
Weather at : CYFC - Fredericton Intl ( 31 km )
METAR: CYFC 221446Z AUTO 17010KT 9SM -RA BKN019 OVC026 17/14 A2975 RMK SLP077 DENSITY ALT 600FT
TAF: TAF CYFC 221140Z 2212/2224 VRB03KT P6SM OVC012 TEMPO 2212/2216 3SM -DZ BR BKN006 OVC012 BECMG 2212/2214 16012KT FM221600 20010G20KT P6SM -SHRA OVC015 TEMPO 2216/2219 3SM -SHRA BR BKN008 OVC015 FM221900 20012KT P6SM OVC015 TEMPO 2219/2224 6SM -DZ BR RMK FCST BASED ON AUTO OBS. NXT FCST BY 221800Z
View NOTAMs / SUP AIP / TFR affecting this airport [VIEW]
Communications frequencies: [VIEW]

Runways:

RWY identifierQFULength (ft)Width (ft)SurfaceLDA (ft)
05300080SAND
23300080SAND

Airport contact information

Address: Keswick Canada

Satellite view of CCG3